Berta — V2BQ6 — position and weather

sailwx.info

Track history (hours):
 
Tides and Currents Weather Stations Pressure Air Temp Water Temp Dewpoint Dewpoint Depression Visibility Wind Speed Wind Dir Waves Ship Positions

Berta

Last reported at 2017-Feb-20 13:33 UTC. Time now 2017-Feb-20 14:06 UTC.
Position N 53°36' E 009°36'.

Length 118 m; draft 7.7 m.

Type: Cargo ship. MMSI: 304586000.

Date/timePositionNaut miles runAvg speedWind from/ knotsBaromVisibWave heightAir tempDewpointWater temp
2017-Feb-20 13:33N 53°36' E 009°36'1110.8
2017-Feb-20 12:33N 53°45' E 009°25'1010.5
2017-Feb-20 11:33N 53°53' E 009°14'1111.5
2017-Feb-20 10:34N 53°51' E 008°55'10 9.8
2017-Feb-20 09:33N 53°55' E 008°40'1110.5
2017-Feb-20 08:33N 53°59' E 008°23'1212.2
2017-Feb-20 07:33N 54°00' E 008°03'6012.0
2017-Feb-20 02:34N 54°48' E 007°01'1312.9
2017-Feb-20 01:34N 54°60' E 006°52'1312.7
2017-Feb-20 00:34N 55°11' E 006°44'18312.6
2017-Feb-19 10:04N 58°11' E 005°36'612.6
2017-Feb-19 09:33N 58°17' E 005°34'1313.1
2017-Feb-19 08:33N 58°30' E 005°30'1313.1
2017-Feb-19 07:33N 58°43' E 005°26'1111.3
2017-Feb-19 06:34N 58°54' E 005°31'1312.9
2017-Feb-19 05:33N 59°06' E 005°31'1212.1
2017-Feb-19 04:33N 59°16' E 005°44'1312.7
2017-Feb-19 03:33N 59°24' E 006°05'1110.7
2017-Feb-19 02:33N 59°33' E 006°17'6 0.9
2017-Feb-18 19:23N 59°39' E 006°22'6 6.8
2017-Feb-18 18:33N 59°33' E 006°17'1111.3
2017-Feb-18 17:33N 59°24' E 006°05'1313.0
2017-Feb-18 16:33N 59°16' E 005°44'1413.6
2017-Feb-18 15:33N 59°07' E 005°26'1211.6
2017-Feb-18 14:33N 59°11' E 005°04'1211.7
2017-Feb-18 13:33N 59°22' E 004°57'1212.1
2017-Feb-18 12:33N 59°34' E 004°54'1111.4
2017-Feb-18 11:33N 59°45' E 004°50'1212.0
2017-Feb-18 10:33N 59°57' E 004°46'1211.7
2017-Feb-18 09:33N 60°09' E 004°42'1211.8
2017-Feb-18 08:33N 60°20' E 004°37'1211.5
2017-Feb-18 07:33N 60°31' E 004°34'1212.1
2017-Feb-18 06:33N 60°43' E 004°31'1111.5
2017-Feb-18 05:33N 60°55' E 004°27'1111.2
2017-Feb-18 04:33N 61°06' E 004°26'1212.3
2017-Feb-18 03:32N 61°18' E 004°27'1211.8
2017-Feb-18 02:33N 61°30' E 004°28'1111.4
2017-Feb-18 01:33N 61°42' E 004°30'1211.9
2017-Feb-18 00:33N 61°52' E 004°40'1111.3
2017-Feb-17 23:33N 62°03' E 004°50'1111.4
2017-Feb-17 22:33N 62°12' E 005°03'1212.2
2017-Feb-17 21:33N 62°21' E 005°21'1111.3
2017-Feb-17 20:33N 62°27' E 005°42'1212.0
2017-Feb-17 19:33N 62°23' E 006°07'1212.4
2017-Feb-17 18:33N 62°23' E 006°34'0 0.3
2017-Feb-17 17:33N 62°23' E 006°34'0 0.0
2017-Feb-17 16:32N 62°23' E 006°34'6 6.0
2017-Feb-17 15:33N 62°24' E 006°21'8 8.1
2017-Feb-17 14:33N 62°29' E 006°07'6 6.5
2017-Feb-17 13:33N 62°29' E 006°20'0 0.0
2017-Feb-17 12:31N 62°29' E 006°20'2 2.0
2017-Feb-17 11:33N 62°28' E 006°16'4 3.5
2017-Feb-17 10:28N 62°28' E 006°08'0 0.0
2017-Feb-17 09:34N 62°28' E 006°08'0 0.0
2017-Feb-17 08:33N 62°28' E 006°08'0 0.0
2017-Feb-17 07:31N 62°28' E 006°08'0 0.0
2017-Feb-17 06:34N 62°28' E 006°08'0 0.0
2017-Feb-17 05:34N 62°28' E 006°08'0 0.0
2017-Feb-17 04:33N 62°28' E 006°08'0 0.0
2017-Feb-17 03:34N 62°28' E 006°08'0 0.0
2017-Feb-17 02:34N 62°28' E 006°08'0 0.0
2017-Feb-17 01:33N 62°28' E 006°08'0 0.0
2017-Feb-17 00:33N 62°28' E 006°08'0 0.0
2017-Feb-16 23:34N 62°28' E 006°08'1 1.0
2017-Feb-16 22:33N 62°28' E 006°10'1212.0
2017-Feb-16 21:33N 62°31' E 005°45'1211.8
2017-Feb-16 20:33N 62°41' E 005°56'1312.9
2017-Feb-16 19:33N 62°51' E 006°16'1312.9
2017-Feb-16 18:33N 62°59' E 006°38'1313.4
2017-Feb-16 17:33N 63°06' E 007°02'1313.1
2017-Feb-16 16:34N 63°13' E 007°27'1313.0
2017-Feb-16 15:33N 63°13' E 007°55'1313.0
2017-Feb-16 14:33N 63°20' E 008°20'1313.1
2017-Feb-16 13:33N 63°27' E 008°46'1111.1
2017-Feb-16 12:33N 63°24' E 009°10'5 5.1
2017-Feb-16 11:32N 63°19' E 009°09'0 0.0
2017-Feb-16 10:32N 63°19' E 009°09'0 0.0
2017-Feb-16 09:32N 63°19' E 009°09'0 0.0
2017-Feb-16 08:32N 63°19' E 009°09'0 0.0
2017-Feb-16 07:26N 63°19' E 009°09'0 0.0
2017-Feb-16 06:29N 63°19' E 009°09'0 0.0
2017-Feb-16 05:32N 63°19' E 009°09'0 0.0
2017-Feb-16 04:32N 63°19' E 009°09'0 0.0
2017-Feb-16 03:29N 63°19' E 009°09'0 0.0
2017-Feb-16 02:32N 63°19' E 009°09'0 0.0
2017-Feb-16 01:32N 63°19' E 009°09'0 0.0
2017-Feb-16 00:32N 63°19' E 009°09'0 0.0
2017-Feb-15 23:29N 63°19' E 009°09'0 0.0
2017-Feb-15 22:29N 63°19' E 009°09'0 0.0
2017-Feb-15 21:29N 63°19' E 009°09'0 0.0
2017-Feb-15 20:32N 63°19' E 009°09'0 0.0
2017-Feb-15 19:32N 63°19' E 009°09'0 0.0
2017-Feb-15 18:26N 63°19' E 009°09'0 0.0
2017-Feb-15 17:33N 63°19' E 009°09'0 0.0
2017-Feb-15 16:33N 63°19' E 009°09'0 0.0
2017-Feb-15 15:32N 63°19' E 009°09'1 0.7
2017-Feb-15 14:33N 63°20' E 009°09'10 9.8
2017-Feb-15 13:33N 63°28' E 008°57'1414.2
2017-Feb-15 12:33N 63°23' E 008°28'1514.6
2017-Feb-15 11:33N 63°15' E 008°01'1413.8
2017-Feb-15 10:33N 63°14' E 007°31'1414.3
2017-Feb-15 09:33N 63°06' E 007°04'1414.0
2017-Feb-15 08:33N 62°58' E 006°38'1413.8
2017-Feb-15 07:33N 62°50' E 006°13'1414.3
2017-Feb-15 06:33N 62°40' E 005°52'1414.1
2017-Feb-15 05:33N 62°29' E 005°31'1413.8
2017-Feb-15 04:33N 62°19' E 005°12'1413.6
2017-Feb-15 03:33N 62°08' E 004°56'1414.0
2017-Feb-15 02:33N 61°56' E 004°39'1414.3
2017-Feb-15 01:33N 61°43' E 004°27'1414.2
2017-Feb-15 00:33N 61°29' E 004°25'1414.5
2017-Feb-14 23:33N 61°14' E 004°26'1514.9
2017-Feb-14 22:33N 60°59' E 004°27'1111.4
2017-Feb-14 21:33N 60°52' E 004°45'1211.8
2017-Feb-14 20:33N 61°02' E 004°56'1413.9
2017-Feb-14 19:32N 61°04' E 005°25'1515.1
2017-Feb-14 18:33N 61°08' E 005°54'1615.4
2017-Feb-14 17:33N 61°06' E 006°26'1313.1
2017-Feb-14 16:33N 61°09' E 006°52'1313.3
2017-Feb-14 15:33N 61°09' E 007°20'1211.9
2017-Feb-14 14:33N 61°14' E 007°43'0 0.0
2017-Feb-14 13:33N 61°14' E 007°43'4 4.2
2017-Feb-14 12:33N 61°12' E 007°35'1413.8
2017-Feb-14 11:32N 61°08' E 007°07'1212.3
2017-Feb-14 10:33N 61°10' E 006°43'1211.8
2017-Feb-14 09:33N 61°06' E 006°20'1313.2
2017-Feb-14 08:33N 61°08' E 005°52'1313.4
2017-Feb-14 07:33N 61°04' E 005°26'1312.6
2017-Feb-14 06:33N 61°04' E 004°60'1212.4
2017-Feb-14 05:33N 60°53' E 004°46'9 9.4
2017-Feb-14 04:33N 60°44' E 004°39'1212.2
2017-Feb-14 03:33N 60°32' E 004°37'1413.9
2017-Feb-14 02:33N 60°18' E 004°42'1414.3
2017-Feb-14 01:33N 60°04' E 004°46'1414.3
2017-Feb-14 00:33N 59°50' E 004°50'1414.1
2017-Feb-13 23:33N 59°36' E 004°53'1414.3
2017-Feb-13 22:33N 59°22' E 004°58'1414.1
2017-Feb-13 21:33N 59°09' E 005°07'9 8.9
2017-Feb-13 20:33N 59°15' E 005°20'6 5.7
2017-Feb-13 19:32N 59°20' E 005°18'0 0.0
2017-Feb-13 18:32N 59°20' E 005°18'0 0.0
2017-Feb-13 17:32N 59°20' E 005°18'0 0.0
2017-Feb-13 16:32N 59°20' E 005°18'0 0.0
2017-Feb-13 15:32N 59°20' E 005°18'0 0.0
2017-Feb-13 14:32N 59°20' E 005°18'0 0.0
2017-Feb-13 13:32N 59°20' E 005°18'0 0.0
2017-Feb-13 12:32N 59°20' E 005°18'0 0.0
2017-Feb-13 11:32N 59°20' E 005°18'0 0.0
2017-Feb-13 10:32N 59°20' E 005°18'0 0.0
2017-Feb-13 09:32N 59°20' E 005°18'0 0.2
2017-Feb-13 08:33N 59°20' E 005°18'1110.7
2017-Feb-13 07:34N 59°10' E 005°22'1313.3
2017-Feb-13 06:34N 58°57' E 005°20'1414.2
2017-Feb-13 05:34N 58°42' E 005°21'1413.5
2017-Feb-13 04:33N 58°29' E 005°21'1212.1
2017-Feb-13 03:33N 58°18' E 005°31'1413.3
2017-Feb-13 02:29N 58°04' E 005°37'1412.5
2017-Feb-13 01:23N 57°51' E 005°45'14912.6
2017-Feb-12 13:33N 55°26' E 006°52'1212.4
2017-Feb-12 12:33N 55°14' E 006°58'1212.0
2017-Feb-12 11:33N 55°03' E 007°03'1211.7
2017-Feb-12 10:33N 54°51' E 007°07'1211.5
2017-Feb-12 09:33N 54°40' E 007°13'5011.9
2017-Feb-12 05:23N 53°54' E 007°45'1012.1
2017-Feb-12 04:33N 53°51' E 008°01'1616.0
2017-Feb-12 03:33N 53°41' E 008°22'8 8.4
2017-Feb-12 02:33N 53°35' E 008°32'0 0.0
2017-Feb-12 01:33N 53°35' E 008°32'0 0.0
2017-Feb-12 00:33N 53°35' E 008°32'0 0.0
2017-Feb-11 23:33N 53°35' E 008°32'0 0.0
2017-Feb-11 22:33N 53°35' E 008°32'0 0.0
2017-Feb-11 21:33N 53°35' E 008°32'0 0.0
2017-Feb-11 20:30N 53°35' E 008°32'0 0.0
2017-Feb-11 19:33N 53°35' E 008°32'8 7.6
2017-Feb-11 18:34N 53°40' E 008°22'1110.8
2017-Feb-11 17:34N 53°47' E 008°08'1010.4
2017-Feb-11 16:33N 53°52' E 007°53'1711.6
2017-Feb-11 15:08N 54°00' E 008°17'916.0
2017-Feb-11 14:33N 53°58' E 008°33'1312.7
2017-Feb-11 13:33N 53°50' E 008°50'1111.3
2017-Feb-11 12:34N 53°53' E 009°08'10 9.9
2017-Feb-11 11:34N 53°48' E 009°23'1010.5
2017-Feb-11 10:34N 53°39' E 009°31'1212.4
2017-Feb-11 09:33N 53°33' E 009°50'3 2.9
2017-Feb-11 08:33N 53°32' E 009°54'0 0.0
2017-Feb-11 07:33N 53°32' E 009°54'0 0.0
2017-Feb-11 06:33N 53°32' E 009°54'0 0.0
2017-Feb-11 05:33N 53°32' E 009°54'0 0.4
2017-Feb-11 04:32N 53°32' E 009°54'0 0.0
2017-Feb-11 03:32N 53°32' E 009°55'0 0.0
2017-Feb-11 02:32N 53°32' E 009°55'0 0.0
2017-Feb-11 01:32N 53°32' E 009°55'0 0.0
2017-Feb-11 00:32N 53°32' E 009°55'0 0.0
2017-Feb-10 23:32N 53°32' E 009°55'0 0.0
2017-Feb-10 22:32N 53°32' E 009°55'2 2.3
2017-Feb-10 21:33N 53°30' E 009°56'0 0.0
2017-Feb-10 20:33N 53°30' E 009°56'0 0.0
2017-Feb-10 19:33N 53°30' E 009°56'0 0.0
2017-Feb-10 18:33N 53°30' E 009°56'0 0.0
2017-Feb-10 17:34N 53°30' E 009°56'0 0.0
2017-Feb-10 16:34N 53°30' E 009°56'2 2.0
2017-Feb-10 15:33N 53°32' E 009°56'1010.0
2017-Feb-10 14:33N 53°34' E 009°39'1111.4
2017-Feb-10 13:34N 53°43' E 009°28'  
Track history (hours):
 
Tides and Currents Weather Stations Pressure Air Temp Water Temp Dewpoint Dewpoint Depression Visibility Wind Speed Wind Dir Waves Ship Positions

Berta

Last reported at 2017-Feb-20 13:33 UTC. Time now 2017-Feb-20 14:06 UTC.
Position N 53°36' E 009°36'.

Length 118 m; draft 7.7 m.

Type: Cargo ship. MMSI: 304586000.

Date/timePositionNaut miles runAvg speedWind from/ knotsBaromVisibWave heightAir tempDewpointWater temp
2017-Feb-20 13:33N 53°36' E 009°36'1110.8
2017-Feb-20 12:33N 53°45' E 009°25'1010.5
2017-Feb-20 11:33N 53°53' E 009°14'1111.5
2017-Feb-20 10:34N 53°51' E 008°55'10 9.8
2017-Feb-20 09:33N 53°55' E 008°40'1110.5
2017-Feb-20 08:33N 53°59' E 008°23'1212.2
2017-Feb-20 07:33N 54°00' E 008°03'6012.0
2017-Feb-20 02:34N 54°48' E 007°01'1312.9
2017-Feb-20 01:34N 54°60' E 006°52'1312.7
2017-Feb-20 00:34N 55°11' E 006°44'18312.6
2017-Feb-19 10:04N 58°11' E 005°36'612.6
2017-Feb-19 09:33N 58°17' E 005°34'1313.1
2017-Feb-19 08:33N 58°30' E 005°30'1313.1
2017-Feb-19 07:33N 58°43' E 005°26'1111.3
2017-Feb-19 06:34N 58°54' E 005°31'1312.9
2017-Feb-19 05:33N 59°06' E 005°31'1212.1
2017-Feb-19 04:33N 59°16' E 005°44'1312.7
2017-Feb-19 03:33N 59°24' E 006°05'1110.7
2017-Feb-19 02:33N 59°33' E 006°17'6 0.9
2017-Feb-18 19:23N 59°39' E 006°22'6 6.8
2017-Feb-18 18:33N 59°33' E 006°17'1111.3
2017-Feb-18 17:33N 59°24' E 006°05'1313.0
2017-Feb-18 16:33N 59°16' E 005°44'1413.6
2017-Feb-18 15:33N 59°07' E 005°26'1211.6
2017-Feb-18 14:33N 59°11' E 005°04'1211.7
2017-Feb-18 13:33N 59°22' E 004°57'1212.1
2017-Feb-18 12:33N 59°34' E 004°54'1111.4
2017-Feb-18 11:33N 59°45' E 004°50'1212.0
2017-Feb-18 10:33N 59°57' E 004°46'1211.7
2017-Feb-18 09:33N 60°09' E 004°42'1211.8
2017-Feb-18 08:33N 60°20' E 004°37'1211.5
2017-Feb-18 07:33N 60°31' E 004°34'1212.1
2017-Feb-18 06:33N 60°43' E 004°31'1111.5
2017-Feb-18 05:33N 60°55' E 004°27'1111.2
2017-Feb-18 04:33N 61°06' E 004°26'1212.3
2017-Feb-18 03:32N 61°18' E 004°27'1211.8
2017-Feb-18 02:33N 61°30' E 004°28'1111.4
2017-Feb-18 01:33N 61°42' E 004°30'1211.9
2017-Feb-18 00:33N 61°52' E 004°40'1111.3
2017-Feb-17 23:33N 62°03' E 004°50'1111.4
2017-Feb-17 22:33N 62°12' E 005°03'1212.2
2017-Feb-17 21:33N 62°21' E 005°21'1111.3
2017-Feb-17 20:33N 62°27' E 005°42'1212.0
2017-Feb-17 19:33N 62°23' E 006°07'1212.4
2017-Feb-17 18:33N 62°23' E 006°34'0 0.3
2017-Feb-17 17:33N 62°23' E 006°34'0 0.0
2017-Feb-17 16:32N 62°23' E 006°34'6 6.0
2017-Feb-17 15:33N 62°24' E 006°21'8 8.1
2017-Feb-17 14:33N 62°29' E 006°07'6 6.5
2017-Feb-17 13:33N 62°29' E 006°20'0 0.0
2017-Feb-17 12:31N 62°29' E 006°20'2 2.0
2017-Feb-17 11:33N 62°28' E 006°16'4 3.5
2017-Feb-17 10:28N 62°28' E 006°08'0 0.0
2017-Feb-17 09:34N 62°28' E 006°08'0 0.0
2017-Feb-17 08:33N 62°28' E 006°08'0 0.0
2017-Feb-17 07:31N 62°28' E 006°08'0 0.0
2017-Feb-17 06:34N 62°28' E 006°08'0 0.0
2017-Feb-17 05:34N 62°28' E 006°08'0 0.0
2017-Feb-17 04:33N 62°28' E 006°08'0 0.0
2017-Feb-17 03:34N 62°28' E 006°08'0 0.0
2017-Feb-17 02:34N 62°28' E 006°08'0 0.0
2017-Feb-17 01:33N 62°28' E 006°08'0 0.0
2017-Feb-17 00:33N 62°28' E 006°08'0 0.0
2017-Feb-16 23:34N 62°28' E 006°08'1 1.0
2017-Feb-16 22:33N 62°28' E 006°10'1212.0
2017-Feb-16 21:33N 62°31' E 005°45'1211.8
2017-Feb-16 20:33N 62°41' E 005°56'1312.9
2017-Feb-16 19:33N 62°51' E 006°16'1312.9
2017-Feb-16 18:33N 62°59' E 006°38'1313.4
2017-Feb-16 17:33N 63°06' E 007°02'1313.1
2017-Feb-16 16:34N 63°13' E 007°27'1313.0
2017-Feb-16 15:33N 63°13' E 007°55'1313.0
2017-Feb-16 14:33N 63°20' E 008°20'1313.1
2017-Feb-16 13:33N 63°27' E 008°46'1111.1
2017-Feb-16 12:33N 63°24' E 009°10'5 5.1
2017-Feb-16 11:32N 63°19' E 009°09'0 0.0
2017-Feb-16 10:32N 63°19' E 009°09'0 0.0
2017-Feb-16 09:32N 63°19' E 009°09'0 0.0
2017-Feb-16 08:32N 63°19' E 009°09'0 0.0
2017-Feb-16 07:26N 63°19' E 009°09'0 0.0
2017-Feb-16 06:29N 63°19' E 009°09'0 0.0
2017-Feb-16 05:32N 63°19' E 009°09'0 0.0
2017-Feb-16 04:32N 63°19' E 009°09'0 0.0
2017-Feb-16 03:29N 63°19' E 009°09'0 0.0
2017-Feb-16 02:32N 63°19' E 009°09'0 0.0
2017-Feb-16 01:32N 63°19' E 009°09'0 0.0
2017-Feb-16 00:32N 63°19' E 009°09'0 0.0
2017-Feb-15 23:29N 63°19' E 009°09'0 0.0
2017-Feb-15 22:29N 63°19' E 009°09'0 0.0
2017-Feb-15 21:29N 63°19' E 009°09'0 0.0
2017-Feb-15 20:32N 63°19' E 009°09'0 0.0
2017-Feb-15 19:32N 63°19' E 009°09'0 0.0
2017-Feb-15 18:26N 63°19' E 009°09'0 0.0
2017-Feb-15 17:33N 63°19' E 009°09'0 0.0
2017-Feb-15 16:33N 63°19' E 009°09'0 0.0
2017-Feb-15 15:32N 63°19' E 009°09'1 0.7
2017-Feb-15 14:33N 63°20' E 009°09'10 9.8
2017-Feb-15 13:33N 63°28' E 008°57'1414.2
2017-Feb-15 12:33N 63°23' E 008°28'1514.6
2017-Feb-15 11:33N 63°15' E 008°01'1413.8
2017-Feb-15 10:33N 63°14' E 007°31'1414.3
2017-Feb-15 09:33N 63°06' E 007°04'1414.0
2017-Feb-15 08:33N 62°58' E 006°38'1413.8
2017-Feb-15 07:33N 62°50' E 006°13'1414.3
2017-Feb-15 06:33N 62°40' E 005°52'1414.1
2017-Feb-15 05:33N 62°29' E 005°31'1413.8
2017-Feb-15 04:33N 62°19' E 005°12'1413.6
2017-Feb-15 03:33N 62°08' E 004°56'1414.0
2017-Feb-15 02:33N 61°56' E 004°39'1414.3
2017-Feb-15 01:33N 61°43' E 004°27'1414.2
2017-Feb-15 00:33N 61°29' E 004°25'1414.5
2017-Feb-14 23:33N 61°14' E 004°26'1514.9
2017-Feb-14 22:33N 60°59' E 004°27'1111.4
2017-Feb-14 21:33N 60°52' E 004°45'1211.8
2017-Feb-14 20:33N 61°02' E 004°56'1413.9
2017-Feb-14 19:32N 61°04' E 005°25'1515.1
2017-Feb-14 18:33N 61°08' E 005°54'1615.4
2017-Feb-14 17:33N 61°06' E 006°26'1313.1
2017-Feb-14 16:33N 61°09' E 006°52'1313.3
2017-Feb-14 15:33N 61°09' E 007°20'1211.9
2017-Feb-14 14:33N 61°14' E 007°43'0 0.0
2017-Feb-14 13:33N 61°14' E 007°43'4 4.2
2017-Feb-14 12:33N 61°12' E 007°35'1413.8
2017-Feb-14 11:32N 61°08' E 007°07'1212.3
2017-Feb-14 10:33N 61°10' E 006°43'1211.8
2017-Feb-14 09:33N 61°06' E 006°20'1313.2
2017-Feb-14 08:33N 61°08' E 005°52'1313.4
2017-Feb-14 07:33N 61°04' E 005°26'1312.6
2017-Feb-14 06:33N 61°04' E 004°60'1212.4
2017-Feb-14 05:33N 60°53' E 004°46'9 9.4
2017-Feb-14 04:33N 60°44' E 004°39'1212.2
2017-Feb-14 03:33N 60°32' E 004°37'1413.9
2017-Feb-14 02:33N 60°18' E 004°42'1414.3
2017-Feb-14 01:33N 60°04' E 004°46'1414.3
2017-Feb-14 00:33N 59°50' E 004°50'1414.1
2017-Feb-13 23:33N 59°36' E 004°53'1414.3
2017-Feb-13 22:33N 59°22' E 004°58'1414.1
2017-Feb-13 21:33N 59°09' E 005°07'9 8.9
2017-Feb-13 20:33N 59°15' E 005°20'6 5.7
2017-Feb-13 19:32N 59°20' E 005°18'0 0.0
2017-Feb-13 18:32N 59°20' E 005°18'0 0.0
2017-Feb-13 17:32N 59°20' E 005°18'0 0.0
2017-Feb-13 16:32N 59°20' E 005°18'0 0.0
2017-Feb-13 15:32N 59°20' E 005°18'0 0.0
2017-Feb-13 14:32N 59°20' E 005°18'0 0.0
2017-Feb-13 13:32N 59°20' E 005°18'0 0.0
2017-Feb-13 12:32N 59°20' E 005°18'0 0.0
2017-Feb-13 11:32N 59°20' E 005°18'0 0.0
2017-Feb-13 10:32N 59°20' E 005°18'0 0.0
2017-Feb-13 09:32N 59°20' E 005°18'0 0.2
2017-Feb-13 08:33N 59°20' E 005°18'1110.7
2017-Feb-13 07:34N 59°10' E 005°22'1313.3
2017-Feb-13 06:34N 58°57' E 005°20'1414.2
2017-Feb-13 05:34N 58°42' E 005°21'1413.5
2017-Feb-13 04:33N 58°29' E 005°21'1212.1
2017-Feb-13 03:33N 58°18' E 005°31'1413.3
2017-Feb-13 02:29N 58°04' E 005°37'1412.5
2017-Feb-13 01:23N 57°51' E 005°45'14912.6
2017-Feb-12 13:33N 55°26' E 006°52'1212.4
2017-Feb-12 12:33N 55°14' E 006°58'1212.0
2017-Feb-12 11:33N 55°03' E 007°03'1211.7
2017-Feb-12 10:33N 54°51' E 007°07'1211.5
2017-Feb-12 09:33N 54°40' E 007°13'5011.9
2017-Feb-12 05:23N 53°54' E 007°45'1012.1
2017-Feb-12 04:33N 53°51' E 008°01'1616.0
2017-Feb-12 03:33N 53°41' E 008°22'8 8.4
2017-Feb-12 02:33N 53°35' E 008°32'0 0.0
2017-Feb-12 01:33N 53°35' E 008°32'0 0.0
2017-Feb-12 00:33N 53°35' E 008°32'0 0.0
2017-Feb-11 23:33N 53°35' E 008°32'0 0.0
2017-Feb-11 22:33N 53°35' E 008°32'0 0.0
2017-Feb-11 21:33N 53°35' E 008°32'0 0.0
2017-Feb-11 20:30N 53°35' E 008°32'0 0.0
2017-Feb-11 19:33N 53°35' E 008°32'8 7.6
2017-Feb-11 18:34N 53°40' E 008°22'1110.8
2017-Feb-11 17:34N 53°47' E 008°08'1010.4
2017-Feb-11 16:33N 53°52' E 007°53'1711.6
2017-Feb-11 15:08N 54°00' E 008°17'916.0
2017-Feb-11 14:33N 53°58' E 008°33'1312.7
2017-Feb-11 13:33N 53°50' E 008°50'1111.3
2017-Feb-11 12:34N 53°53' E 009°08'10 9.9
2017-Feb-11 11:34N 53°48' E 009°23'1010.5
2017-Feb-11 10:34N 53°39' E 009°31'1212.4
2017-Feb-11 09:33N 53°33' E 009°50'3 2.9
2017-Feb-11 08:33N 53°32' E 009°54'0 0.0
2017-Feb-11 07:33N 53°32' E 009°54'0 0.0
2017-Feb-11 06:33N 53°32' E 009°54'0 0.0
2017-Feb-11 05:33N 53°32' E 009°54'0 0.4
2017-Feb-11 04:32N 53°32' E 009°54'0 0.0
2017-Feb-11 03:32N 53°32' E 009°55'0 0.0
2017-Feb-11 02:32N 53°32' E 009°55'0 0.0
2017-Feb-11 01:32N 53°32' E 009°55'0 0.0
2017-Feb-11 00:32N 53°32' E 009°55'0 0.0
2017-Feb-10 23:32N 53°32' E 009°55'0 0.0
2017-Feb-10 22:32N 53°32' E 009°55'2 2.3
2017-Feb-10 21:33N 53°30' E 009°56'0 0.0
2017-Feb-10 20:33N 53°30' E 009°56'0 0.0
2017-Feb-10 19:33N 53°30' E 009°56'0 0.0
2017-Feb-10 18:33N 53°30' E 009°56'0 0.0
2017-Feb-10 17:34N 53°30' E 009°56'0 0.0
2017-Feb-10 16:34N 53°30' E 009°56'2 2.0
2017-Feb-10 15:33N 53°32' E 009°56'1010.0
2017-Feb-10 14:33N 53°34' E 009°39'1111.4
2017-Feb-10 13:34N 53°43' E 009°28'  

Dump ship's entire track history